CheckWX is a tool to help pilots better visualize weather data.  It is not intended as a substitute for an official pre-flight weather briefing.

18:26:00 UTC

KBWG METAR
Bowling Green-Warren County Regional Airport
Bowling Green, Kentucky, USA
Current

33 mins ago

KBWG 201753Z AUTO 23006KT 10SM FEW049 SCT075 34/22 A3007 RMK AO2 SLP175 T03390222 10344 20250 58011
Observed
Aug-20 @ 17:53 UTC
Wind
  • 230° at 6 KTS
Visibility
10 SM
Flight Rules
VFR
Cloud Levels
  • Few at 4,900' AGL
  • Scattered at 7,500' AGL
Temperature
34°C / 93°F
Dewpoint
22°C / 72°F
Heat Index
38°C / 100°F
Humidity
49%
Altimeter
30.07" Hg
Pressure
1018.32 hPa
Previous

2 hours ago

KBWG 201653Z AUTO 22008KT 160V240 10SM FEW037 SCT049 34/23 A3009 RMK AO2 SLP180 T03440233
Observed
Aug-20 @ 16:53 UTC
Wind
  • 220° at 8 KTS
Visibility
10 SM
Flight Rules
VFR
Cloud Levels
  • Few at 3,700' AGL
  • Scattered at 4,900' AGL
Temperature
34°C / 93°F
Dewpoint
23°C / 73°F
Heat Index
39°C / 103°F
Humidity
53%
Altimeter
30.09" Hg
Pressure
1018.92 hPa
Previous

3 hours ago

KBWG 201553Z AUTO 21003KT 10SM CLR 33/24 A3010 RMK AO2 SLP186 T03280239
Observed
Aug-20 @ 15:53 UTC
Wind
  • 210° at 3 KTS
Visibility
10 SM
Flight Rules
VFR
Cloud Levels
  • Clear skies
Temperature
33°C / 91°F
Dewpoint
24°C / 75°F
Heat Index
39°C / 102°F
Humidity
59%
Altimeter
30.1" Hg
Pressure
1019.32 hPa